Isle of Arran, United Kingdom
Current Conditions -  °F | °C
As of 5:50 AM on Tuesday 21 Oct 2014 (Local Time) from EGPK Reporting Station
Light Rain Light Rain  
Wind Chill: 50°   Ceiling: 2500
Heat Index: 50°   Visibility: 5mi
Dew Point: 43°   Wind: 33mph
Humidity: 76%   Direction: 290°WNW
Pressure: 29.21"   Gusts: 47mph
Location:  55.58°N, 5.15°W
Report Text: EGPK 210450Z 29029G41KT 8000 -RA BKN025 10/06 Q0989
Loading
Personal Weather Stations






























Interactive Weather Map
Tropical Storm Tracking
New forecast layout! Learn more

10-Day Weather Forecast

Advertisements
Track Severe Weather on mobile